createdAt,value
2022-11-02T00:00:57.834Z,101233.91
2022-11-02T00:03:24.806Z,101235.03
2022-11-02T00:05:51.895Z,101240.53
2022-11-02T00:08:18.906Z,101245.94
2022-11-02T00:10:45.954Z,101238.13
2022-11-02T00:13:12.940Z,101248.69
2022-11-02T00:15:40.053Z,101245.16
2022-11-02T00:18:12.562Z,101241.75
2022-11-02T00:20:47.578Z,101244.47
2022-11-02T00:23:15.731Z,101242.78
2022-11-02T00:25:48.152Z,101248.28
2022-11-02T00:28:15.792Z,101244.53
2022-11-02T00:30:43.760Z,101247.25
2022-11-02T00:33:10.799Z,101249.16
2022-11-02T00:35:38.495Z,101244.78
2022-11-02T00:38:06.113Z,101250.50
2022-11-02T00:40:33.418Z,101252.19
2022-11-02T00:43:00.362Z,101251.22
2022-11-02T00:45:27.315Z,101244.09
2022-11-02T00:47:57.569Z,101246.97
2022-11-02T00:50:24.651Z,101250.44
2022-11-02T00:52:51.553Z,101248.91
2022-11-02T00:55:18.668Z,101249.75
2022-11-02T00:57:45.759Z,101248.81
2022-11-02T01:00:15.294Z,101242.94
2022-11-02T01:02:43.304Z,101243.06
2022-11-02T01:05:11.524Z,101247.16
2022-11-02T01:07:39.315Z,101246.94
2022-11-02T01:10:10.888Z,101247.47
2022-11-02T01:12:41.241Z,101247.94
2022-11-02T01:15:10.401Z,101242.28
2022-11-02T01:17:38.116Z,101234.63
2022-11-02T01:20:06.071Z,101232.91
2022-11-02T01:22:33.242Z,101238.56
2022-11-02T01:25:00.201Z,101238.13
2022-11-02T01:27:27.138Z,101250.63
2022-11-02T01:29:54.153Z,101256.84
2022-11-02T01:32:21.135Z,101244.66
2022-11-02T01:34:48.223Z,101251.09
2022-11-02T01:37:15.219Z,101254.16
2022-11-02T01:39:42.263Z,101248.31
2022-11-02T01:42:22.290Z,101255.38
2022-11-02T01:44:49.328Z,101248.81
2022-11-02T01:47:32.721Z,101241.44
2022-11-02T01:50:27.353Z,101235.03
2022-11-02T01:52:54.643Z,101226.34
2022-11-02T01:55:32.674Z,101224.88
2022-11-02T01:58:10.387Z,101217.59
2022-11-02T02:00:38.717Z,101221.69
2022-11-02T02:03:16.857Z,101218.53
2022-11-02T02:06:11.585Z,101220.66
2022-11-02T02:08:46.533Z,101216.59
2022-11-02T02:11:40.533Z,101222.84
2022-11-02T02:14:20.089Z,101217.69
2022-11-02T02:17:00.604Z,101217.50
2022-11-02T02:20:07.597Z,101213.72
2022-11-02T02:23:27.533Z,101219.94
2022-11-02T02:26:28.620Z,101216.81
2022-11-02T02:28:58.133Z,101216.16
2022-11-02T02:32:00.264Z,101218.94
2022-11-02T02:35:01.261Z,101217.25
2022-11-02T02:37:45.842Z,101210.66
2022-11-02T02:40:26.793Z,101210.44
2022-11-02T02:43:04.849Z,101209.69
2022-11-02T02:45:52.903Z,101203.00
2022-11-02T02:48:25.388Z,101206.88
2022-11-02T02:51:09.466Z,101217.50
2022-11-02T02:53:46.341Z,101208.22
2022-11-02T02:56:17.669Z,101205.22
2022-11-02T02:59:25.935Z,101201.50
2022-11-02T03:01:54.508Z,101195.69
2022-11-02T03:04:21.526Z,101200.94
2022-11-02T03:06:59.964Z,101200.66
2022-11-02T03:09:44.125Z,101208.94
2022-11-02T03:12:40.425Z,101200.47
2022-11-02T03:15:40.340Z,101199.44
2022-11-02T03:18:36.044Z,101192.38
2022-11-02T03:21:30.365Z,101192.09
2022-11-02T03:24:32.354Z,101198.22
2022-11-02T03:27:30.494Z,101202.81
2022-11-02T03:30:22.780Z,101198.41
2022-11-02T03:33:16.929Z,101202.59
2022-11-02T03:36:07.459Z,101202.94
2022-11-02T03:38:46.118Z,101202.97
2022-11-02T03:41:15.530Z,101201.28
2022-11-02T03:43:43.985Z,101193.28
2022-11-02T03:46:12.142Z,101190.50
2022-11-02T03:48:48.895Z,101195.69
2022-11-02T03:51:22.580Z,101202.94
2022-11-02T03:53:58.874Z,101207.56
2022-11-02T03:56:36.292Z,101203.31
2022-11-02T03:59:03.724Z,101200.41
2022-11-02T04:01:36.876Z,101201.94
2022-11-02T04:04:05.104Z,101205.16
2022-11-02T04:06:32.702Z,101202.84
2022-11-02T04:09:00.042Z,101209.53
2022-11-02T04:11:47.046Z,101199.31
2022-11-02T04:14:32.888Z,101197.78
2022-11-02T04:17:18.357Z,101204.16
2022-11-02T04:19:48.789Z,101205.53
2022-11-02T04:22:36.528Z,101194.22
2022-11-02T04:25:20.360Z,101200.72
2022-11-02T04:27:54.345Z,101190.41
2022-11-02T04:30:24.085Z,101187.31
2022-11-02T04:33:10.343Z,101192.38
2022-11-02T04:35:37.954Z,101191.00
2022-11-02T04:38:23.571Z,101197.59
2022-11-02T04:41:10.625Z,101193.31
2022-11-02T04:43:37.721Z,101197.03
2022-11-02T04:46:04.876Z,101199.56
2022-11-02T04:48:31.807Z,101197.97
2022-11-02T04:50:59.101Z,101202.41
2022-11-02T04:53:26.035Z,101197.78
2022-11-02T04:55:52.989Z,101198.72
2022-11-02T04:58:19.953Z,101203.34
2022-11-02T05:00:46.896Z,101199.88
2022-11-02T05:03:13.820Z,101198.44
2022-11-02T05:05:40.777Z,101200.78
2022-11-02T05:08:07.835Z,101204.31
2022-11-02T05:10:37.128Z,101200.78
2022-11-02T05:13:04.220Z,101196.66
2022-11-02T05:15:31.362Z,101204.31
2022-11-02T05:17:58.340Z,101203.31
2022-11-02T05:20:25.329Z,101204.16
2022-11-02T05:22:52.239Z,101203.00
2022-11-02T05:25:19.254Z,101200.50
2022-11-02T05:27:46.222Z,101203.50
2022-11-02T05:30:14.475Z,101197.97
2022-11-02T05:32:41.582Z,101204.34
2022-11-02T05:35:09.205Z,101197.13
2022-11-02T05:37:36.143Z,101194.75
2022-11-02T05:40:03.395Z,101198.16
2022-11-02T05:42:30.484Z,101202.78
2022-11-02T05:44:57.494Z,101198.50
2022-11-02T05:47:24.488Z,101203.84
2022-11-02T05:49:51.425Z,101198.81
2022-11-02T05:52:18.336Z,101201.66
2022-11-02T05:54:45.272Z,101200.34
2022-11-02T05:57:12.545Z,101203.25
2022-11-02T05:59:39.815Z,101207.72
2022-11-02T06:02:07.219Z,101195.28
2022-11-02T06:04:34.179Z,101201.50
2022-11-02T06:07:01.137Z,101196.13
2022-11-02T06:09:31.163Z,101201.34
2022-11-02T06:11:58.129Z,101200.34
2022-11-02T06:14:25.075Z,101198.91
2022-11-02T06:16:52.030Z,101205.03
2022-11-02T06:19:19.134Z,101202.03
2022-11-02T06:21:48.415Z,101208.16
2022-11-02T06:24:18.859Z,101213.03
2022-11-02T06:26:46.895Z,101218.22
2022-11-02T06:29:13.847Z,101212.94
2022-11-02T06:31:40.816Z,101209.00
2022-11-02T06:34:07.824Z,101211.00
2022-11-02T06:36:34.955Z,101216.28
2022-11-02T06:39:01.931Z,101216.88
2022-11-02T06:41:28.957Z,101214.59
2022-11-02T06:43:56.609Z,101219.66
2022-11-02T06:46:23.615Z,101224.16
2022-11-02T06:48:50.584Z,101221.47
2022-11-02T06:51:17.605Z,101223.84
2022-11-02T06:53:44.552Z,101227.75
2022-11-02T06:56:20.547Z,101234.97
2022-11-02T06:58:53.676Z,101235.22
2022-11-02T07:01:24.118Z,101248.16
2022-11-02T07:04:04.611Z,101243.47
2022-11-02T07:06:40.155Z,101238.75
2022-11-02T07:09:27.576Z,101239.88
2022-11-02T07:12:02.816Z,101240.94
2022-11-02T07:14:42.061Z,101246.53
2022-11-02T07:17:31.987Z,101251.91
2022-11-02T07:20:14.956Z,101243.25
2022-11-02T07:22:42.955Z,101237.84
2022-11-02T07:25:10.183Z,101237.88
2022-11-02T07:27:43.292Z,101237.31
2022-11-02T07:30:20.003Z,101241.31
2022-11-02T07:32:50.698Z,101230.97
2022-11-02T07:35:21.354Z,101236.75
2022-11-02T07:38:37.747Z,101239.78
2022-11-02T07:41:10.775Z,101240.63
2022-11-02T07:43:43.238Z,101236.97
2022-11-02T07:46:11.697Z,101239.53
2022-11-02T07:48:39.394Z,101239.03
2022-11-02T07:51:07.731Z,101247.13
2022-11-02T07:53:35.365Z,101236.34
2022-11-02T07:56:03.886Z,101248.22
2022-11-02T07:58:31.090Z,101237.25
2022-11-02T08:01:00.041Z,101240.91
2022-11-02T08:03:30.794Z,101244.28
2022-11-02T08:06:02.957Z,101245.03
2022-11-02T08:08:30.092Z,101245.84
2022-11-02T08:11:07.177Z,101236.44
2022-11-02T08:13:38.489Z,101239.22
2022-11-02T08:16:05.696Z,101239.56
2022-11-02T08:18:32.898Z,101255.59
2022-11-02T08:21:00.324Z,101247.75
2022-11-02T08:23:30.419Z,101238.94
2022-11-02T08:26:00.240Z,101240.81
2022-11-02T08:28:32.350Z,101245.84
2022-11-02T08:30:59.587Z,101242.78
2022-11-02T08:33:28.238Z,101243.22
2022-11-02T08:36:01.183Z,101254.16
2022-11-02T08:38:28.388Z,101245.38
2022-11-02T08:40:55.780Z,101252.63
2022-11-02T08:43:23.164Z,101246.66
2022-11-02T08:48:44.164Z,101249.03
2022-11-02T08:51:11.210Z,101249.16
2022-11-02T08:53:38.484Z,101247.25
2022-11-02T08:56:15.026Z,101245.13
2022-11-02T08:58:42.149Z,101245.59
2022-11-02T09:01:09.119Z,101242.31
2022-11-02T09:03:36.271Z,101242.78
2022-11-02T09:06:12.376Z,101246.28
2022-11-02T09:08:39.424Z,101239.91
2022-11-02T09:11:09.130Z,101241.75
2022-11-02T09:13:37.913Z,101237.41
2022-11-02T09:16:05.305Z,101250.38
2022-11-02T09:18:35.414Z,101250.94
2022-11-02T09:21:04.872Z,101238.16
2022-11-02T09:23:33.960Z,101235.34
2022-11-02T09:26:08.378Z,101237.84
2022-11-02T09:28:35.476Z,101243.97
2022-11-02T09:31:06.027Z,101243.63
2022-11-02T09:33:36.428Z,101249.84
2022-11-02T09:36:05.781Z,101256.16
2022-11-02T09:38:35.636Z,101258.22
2022-11-02T09:42:01.539Z,101260.38
2022-11-02T09:45:03.210Z,101259.53
2022-11-02T09:50:28.708Z,101265.44
2022-11-02T09:53:04.846Z,101258.50
2022-11-02T09:55:41.641Z,101268.56
2022-11-02T09:58:18.252Z,101262.59
2022-11-02T10:01:16.663Z,101255.19
2022-11-02T10:04:28.984Z,101262.84
2022-11-02T10:07:26.920Z,101260.53
2022-11-02T10:10:38.525Z,101262.41
2022-11-02T10:13:33.293Z,101260.50
2022-11-02T10:16:22.306Z,101265.66
2022-11-02T10:18:53.865Z,101260.91
2022-11-02T10:21:45.437Z,101257.63
2022-11-02T10:24:33.703Z,101273.50
2022-11-02T10:27:09.109Z,101263.50
2022-11-02T10:30:05.333Z,101253.19
2022-11-02T10:32:38.890Z,101257.22
2022-11-02T10:36:18.610Z,101255.03
2022-11-02T10:39:32.161Z,101256.81
2022-11-02T10:43:06.553Z,101258.22
2022-11-02T10:46:06.983Z,101256.41
2022-11-02T10:49:06.801Z,101249.28
2022-11-02T10:51:45.751Z,101259.38
2022-11-02T10:54:20.540Z,101253.38
2022-11-02T10:56:51.135Z,101260.22
2022-11-02T10:59:25.860Z,101266.09
2022-11-02T11:01:59.047Z,101261.00
2022-11-02T11:04:37.253Z,101269.00
2022-11-02T11:07:31.406Z,101258.47
2022-11-02T11:09:58.405Z,101260.16
2022-11-02T11:12:41.196Z,101266.31
2022-11-02T11:16:03.516Z,101265.16
2022-11-02T11:21:19.385Z,101264.16
2022-11-02T11:23:46.367Z,101273.25
2022-11-02T11:26:30.846Z,101283.66
2022-11-02T11:29:00.653Z,101271.53
2022-11-02T11:31:27.686Z,101282.75
2022-11-02T11:34:22.175Z,101282.13
2022-11-02T11:36:49.371Z,101282.09
2022-11-02T11:39:36.124Z,101273.75
2022-11-02T11:42:05.540Z,101278.75
2022-11-02T11:44:34.363Z,101274.53
2022-11-02T11:47:01.571Z,101287.72
2022-11-02T11:52:32.206Z,101278.44
2022-11-02T11:55:19.009Z,101283.84
2022-11-02T11:57:46.295Z,101277.38
2022-11-02T12:00:28.866Z,101268.09
2022-11-02T12:03:14.466Z,101279.41
2022-11-02T12:06:40.729Z,101270.50
2022-11-02T12:09:18.180Z,101276.44
2022-11-02T12:12:37.283Z,101274.94
2022-11-02T12:15:48.371Z,101272.53
2022-11-02T12:18:47.905Z,101269.06
2022-11-02T12:21:38.861Z,101270.75
2022-11-02T12:24:57.393Z,101260.22
2022-11-02T12:28:13.273Z,101258.22
2022-11-02T12:31:35.986Z,101266.66
2022-11-02T12:34:33.882Z,101259.84
2022-11-02T12:37:37.179Z,101260.91
2022-11-02T12:40:11.216Z,101257.97
2022-11-02T12:43:09.778Z,101257.22
2022-11-02T12:46:17.430Z,101256.81
2022-11-02T12:49:20.252Z,101260.81
2022-11-02T12:52:44.201Z,101261.94
2022-11-02T12:55:22.984Z,101267.91
2022-11-02T12:57:52.116Z,101270.31
2022-11-02T13:00:22.301Z,101270.94
2022-11-02T13:03:08.163Z,101263.75
2022-11-02T13:05:48.449Z,101273.69
2022-11-02T13:08:34.660Z,101275.41
2022-11-02T13:11:13.391Z,101264.50
2022-11-02T13:13:55.778Z,101266.19
2022-11-02T13:16:58.935Z,101272.31
2022-11-02T13:20:18.445Z,101267.47
2022-11-02T13:23:21.201Z,101273.31
2022-11-02T13:26:00.034Z,101272.97
2022-11-02T13:28:44.654Z,101268.59
2022-11-02T13:32:06.482Z,101279.84
2022-11-02T13:34:46.056Z,101284.00
2022-11-02T13:37:29.865Z,101279.84
2022-11-02T13:40:02.911Z,101273.50
2022-11-02T13:43:19.679Z,101277.41
2022-11-02T13:46:28.923Z,101272.28
2022-11-02T13:49:16.811Z,101270.47
2022-11-02T13:51:54.935Z,101277.91
2022-11-02T13:54:51.109Z,101280.25
2022-11-02T13:57:44.600Z,101277.63
2022-11-02T14:00:46.499Z,101285.47
2022-11-02T14:03:25.373Z,101287.94
2022-11-02T14:06:10.894Z,101289.06
2022-11-02T14:08:59.714Z,101290.59
2022-11-02T14:11:41.366Z,101287.44
2022-11-02T14:14:11.289Z,101294.13
2022-11-02T14:17:09.992Z,101290.78
2022-11-02T14:19:49.146Z,101296.22
2022-11-02T14:22:20.555Z,101304.94
2022-11-02T14:24:49.339Z,101297.88
2022-11-02T14:27:20.025Z,101300.59
2022-11-02T14:29:47.149Z,101303.28
2022-11-02T14:32:24.148Z,101298.91
2022-11-02T14:35:41.279Z,101303.16
2022-11-02T14:38:49.989Z,101315.47
2022-11-02T14:41:43.033Z,101313.22
2022-11-02T14:44:39.031Z,101315.25
2022-11-02T14:47:32.089Z,101331.31
2022-11-02T14:50:44.281Z,101327.72
2022-11-02T14:53:29.330Z,101328.19
2022-11-02T14:56:04.086Z,101335.97
2022-11-02T14:58:51.812Z,101334.69
2022-11-02T15:01:19.766Z,101341.41
2022-11-02T15:03:48.472Z,101345.69
2022-11-02T15:06:25.697Z,101348.94
2022-11-02T15:08:58.687Z,101355.59
2022-11-02T15:11:51.321Z,101360.50
2022-11-02T15:14:36.699Z,101362.19
2022-11-02T15:17:26.489Z,101361.69
2022-11-02T15:20:16.178Z,101361.34
2022-11-02T15:22:58.876Z,101359.25
2022-11-02T15:25:36.805Z,101361.16
2022-11-02T15:28:26.452Z,101374.00
2022-11-02T15:31:04.053Z,101367.78
2022-11-02T15:34:03.921Z,101368.44
2022-11-02T15:36:38.515Z,101379.03
2022-11-02T15:39:23.682Z,101374.81
2022-11-02T15:42:37.582Z,101367.44
2022-11-02T15:46:37.306Z,101378.63
2022-11-02T15:49:55.889Z,101384.25
2022-11-02T15:53:24.504Z,101390.72
2022-11-02T15:56:38.703Z,101384.97
2022-11-02T15:59:46.157Z,101393.00
2022-11-02T16:03:03.175Z,101397.19
2022-11-02T16:05:47.316Z,101399.94
2022-11-02T16:08:32.778Z,101408.75
2022-11-02T16:11:23.784Z,101406.16
2022-11-02T16:14:09.389Z,101412.50
2022-11-02T16:16:50.846Z,101409.44
2022-11-02T16:19:22.483Z,101408.00
2022-11-02T16:21:50.711Z,101403.16
2022-11-02T16:24:19.465Z,101409.06
2022-11-02T16:26:49.094Z,101410.94
2022-11-02T16:29:31.393Z,101415.97
2022-11-02T16:31:58.477Z,101418.34
2022-11-02T16:34:32.342Z,101417.19
2022-11-02T16:37:10.056Z,101419.28
2022-11-02T16:39:41.900Z,101429.16
2022-11-02T16:42:35.788Z,101426.63
2022-11-02T16:45:29.027Z,101433.63
2022-11-02T16:48:06.422Z,101427.47
2022-11-02T16:50:33.886Z,101428.19
2022-11-02T16:53:02.742Z,101428.38
2022-11-02T16:55:45.545Z,101435.69
2022-11-02T16:58:23.132Z,101442.19
2022-11-02T17:01:17.470Z,101451.88
2022-11-02T17:03:47.698Z,101449.16
2022-11-02T17:06:16.175Z,101453.47
2022-11-02T17:08:53.756Z,101455.44
2022-11-02T17:11:21.786Z,101464.31
2022-11-02T17:14:12.831Z,101455.09
2022-11-02T17:17:26.167Z,101462.69
2022-11-02T17:20:27.779Z,101460.31
2022-11-02T17:23:01.361Z,101468.72
2022-11-02T17:25:40.414Z,101468.19
2022-11-02T17:28:55.828Z,101467.63
2022-11-02T17:31:40.974Z,101468.19
2022-11-02T17:34:39.873Z,101474.19
2022-11-02T17:37:49.943Z,101476.06
2022-11-02T17:40:52.231Z,101480.84
2022-11-02T17:43:36.787Z,101478.84
2022-11-02T17:46:12.747Z,101482.69
2022-11-02T17:48:42.494Z,101490.78
2022-11-02T17:51:12.317Z,101490.88
2022-11-02T17:53:39.263Z,101490.22
2022-11-02T17:56:18.695Z,101494.13
2022-11-02T17:59:00.339Z,101492.44
2022-11-02T18:01:37.083Z,101487.78
2022-11-02T18:04:06.905Z,101490.47
2022-11-02T18:06:37.305Z,101486.56
2022-11-02T18:09:11.419Z,101495.41
2022-11-02T18:11:38.528Z,101505.13
2022-11-02T18:14:08.175Z,101499.13
2022-11-02T18:16:35.235Z,101509.97
2022-11-02T18:19:11.896Z,101505.34
2022-11-02T18:25:33.023Z,101505.06
2022-11-02T18:28:16.719Z,101506.88
2022-11-02T18:30:44.391Z,101510.41
2022-11-02T18:33:33.092Z,101513.50
2022-11-02T18:36:10.127Z,101504.81
2022-11-02T18:38:37.607Z,101516.13
2022-11-02T18:41:27.905Z,101511.50
2022-11-02T18:44:04.074Z,101515.44
2022-11-02T18:46:34.305Z,101520.84
2022-11-02T18:49:01.652Z,101512.34
2022-11-02T18:51:28.837Z,101519.50
2022-11-02T18:54:03.872Z,101521.94
2022-11-02T18:56:31.173Z,101516.66
2022-11-02T18:58:59.076Z,101518.34
2022-11-02T19:01:27.407Z,101524.84
2022-11-02T19:04:00.180Z,101528.25
2022-11-02T19:06:50.882Z,101527.78
2022-11-02T19:09:20.719Z,101532.91
2022-11-02T19:12:04.228Z,101528.72
2022-11-02T19:14:39.817Z,101528.78
2022-11-02T19:17:10.312Z,101524.41
2022-11-02T19:19:40.738Z,101524.41
2022-11-02T19:22:14.923Z,101529.63
2022-11-02T19:24:42.486Z,101528.09
2022-11-02T19:27:22.530Z,101528.59
2022-11-02T19:29:50.451Z,101527.16
2022-11-02T19:32:18.905Z,101526.56
2022-11-02T19:34:52.852Z,101535.31
2022-11-02T19:37:23.339Z,101530.41
2022-11-02T19:39:50.743Z,101525.97
2022-11-02T19:42:17.801Z,101522.22
2022-11-02T19:44:52.332Z,101529.13
2022-11-02T19:47:19.889Z,101529.00
2022-11-02T19:49:46.949Z,101526.84
2022-11-02T19:52:13.897Z,101536.34
2022-11-02T19:54:41.022Z,101533.91
2022-11-02T19:57:08.382Z,101538.50
2022-11-02T19:59:35.552Z,101534.00
2022-11-02T20:02:02.745Z,101540.78
2022-11-02T20:04:42.382Z,101542.31
2022-11-02T20:07:10.223Z,101536.28
2022-11-02T20:09:46.397Z,101540.59
2022-11-02T20:12:25.114Z,101538.81
2022-11-02T20:14:55.447Z,101541.22
2022-11-02T20:17:32.082Z,101535.38
2022-11-02T20:20:04.830Z,101541.53
2022-11-02T20:22:32.073Z,101541.81
2022-11-02T20:24:59.085Z,101541.28
2022-11-02T20:27:26.795Z,101540.91
2022-11-02T20:29:53.769Z,101553.63
2022-11-02T20:32:22.340Z,101555.78
2022-11-02T20:34:49.398Z,101551.69
2022-11-02T20:37:16.768Z,101542.59
2022-11-02T20:39:53.265Z,101553.34
2022-11-02T20:42:24.730Z,101549.22
2022-11-02T20:44:51.806Z,101560.72
2022-11-02T20:47:19.094Z,101561.63
2022-11-02T20:49:50.840Z,101557.47
2022-11-02T20:52:22.107Z,101559.06
2022-11-02T20:54:54.407Z,101563.59
2022-11-02T20:57:24.206Z,101564.31
2022-11-02T20:59:51.722Z,101560.56
2022-11-02T21:02:18.845Z,101552.75
2022-11-02T21:04:51.199Z,101562.41
2022-11-02T21:07:21.339Z,101562.13
2022-11-02T21:09:48.466Z,101565.44
2022-11-02T21:12:35.250Z,101570.44
2022-11-02T21:15:02.679Z,101568.22
2022-11-02T21:17:29.639Z,101569.81
2022-11-02T21:20:02.860Z,101566.38
2022-11-02T21:22:36.299Z,101573.66
2022-11-02T21:25:03.854Z,101569.81
2022-11-02T21:27:35.047Z,101576.44
2022-11-02T21:30:02.294Z,101570.22
2022-11-02T21:32:29.262Z,101573.47
2022-11-02T21:34:57.167Z,101568.72
2022-11-02T21:37:24.200Z,101569.56
2022-11-02T21:40:06.470Z,101567.59
2022-11-02T21:42:33.689Z,101572.50
2022-11-02T21:45:00.814Z,101571.59
2022-11-02T21:47:34.076Z,101559.03
2022-11-02T21:50:02.608Z,101558.84
2022-11-02T21:52:30.010Z,101568.88
2022-11-02T21:54:57.075Z,101561.56
2022-11-02T21:57:30.145Z,101565.81
2022-11-02T21:59:57.429Z,101571.53
2022-11-02T22:02:24.665Z,101563.69
2022-11-02T22:04:53.924Z,101564.81
2022-11-02T22:07:27.342Z,101563.75
2022-11-02T22:09:54.474Z,101568.19
2022-11-02T22:12:40.075Z,101569.38
2022-11-02T22:15:08.647Z,101564.66
2022-11-02T22:17:49.258Z,101560.00
2022-11-02T22:20:17.168Z,101560.22
2022-11-02T22:22:44.905Z,101558.31
2022-11-02T22:25:11.987Z,101552.28
2022-11-02T22:27:39.178Z,101555.66
2022-11-02T22:30:07.227Z,101553.97
2022-11-02T22:32:34.656Z,101554.63
2022-11-02T22:35:01.747Z,101557.47
2022-11-02T22:37:47.533Z,101558.06
2022-11-02T22:40:14.515Z,101557.69
2022-11-02T22:42:42.597Z,101553.13
2022-11-02T22:45:10.452Z,101548.69
2022-11-02T22:47:37.867Z,101551.06
2022-11-02T22:50:06.044Z,101540.78
2022-11-02T22:52:33.047Z,101543.19
2022-11-02T22:55:00.066Z,101539.81
2022-11-02T22:57:27.088Z,101549.06
2022-11-02T22:59:54.157Z,101540.31
2022-11-02T23:02:21.159Z,101548.50
2022-11-02T23:04:48.999Z,101554.06
2022-11-02T23:07:16.111Z,101550.84
2022-11-02T23:09:43.136Z,101559.16
2022-11-02T23:12:10.410Z,101558.78
2022-11-02T23:14:37.340Z,101557.13
2022-11-02T23:17:04.423Z,101551.22
2022-11-02T23:19:33.183Z,101550.72
2022-11-02T23:22:30.960Z,101551.31
2022-11-02T23:28:50.101Z,101539.84
2022-11-02T23:31:41.653Z,101543.34
2022-11-02T23:34:13.232Z,101538.84
2022-11-02T23:36:40.490Z,101542.00
2022-11-02T23:39:29.511Z,101536.81
2022-11-02T23:41:56.742Z,101533.81
2022-11-02T23:44:23.929Z,101539.25
2022-11-02T23:46:52.701Z,101532.72
2022-11-02T23:49:20.067Z,101530.03
2022-11-02T23:52:08.939Z,101536.09
2022-11-02T23:54:55.107Z,101535.47
2022-11-02T23:57:22.755Z,101530.81
2022-11-02T23:59:53.666Z,101531.69
